sensor_id;sensor_type;location;lat;lon;timestamp;pressure;altitude;pressure_sealevel;temperature
61595;BMP280;47397;48.194;11.632;2023-10-13T00:00:09;96073.38;;;17.56
61595;BMP280;47397;48.194;11.632;2023-10-13T00:01:10;96078.81;;;17.49
61595;BMP280;47397;48.194;11.632;2023-10-13T00:02:10;96083.94;;;17.49
61595;BMP280;47397;48.194;11.632;2023-10-13T00:03:11;96085.41;;;17.36
61595;BMP280;47397;48.194;11.632;2023-10-13T00:04:11;96078.91;;;17.29
61595;BMP280;47397;48.194;11.632;2023-10-13T00:05:12;96083.59;;;17.38
61595;BMP280;47397;48.194;11.632;2023-10-13T00:06:12;96087.75;;;17.41
61595;BMP280;47397;48.194;11.632;2023-10-13T00:07:13;96094.94;;;17.34
61595;BMP280;47397;48.194;11.632;2023-10-13T00:08:13;96083.91;;;17.32
61595;BMP280;47397;48.194;11.632;2023-10-13T00:09:13;96080.66;;;17.29
61595;BMP280;47397;48.194;11.632;2023-10-13T00:10:14;96084.81;;;17.31
61595;BMP280;47397;48.194;11.632;2023-10-13T00:11:14;96087.84;;;17.39
61595;BMP280;47397;48.194;11.632;2023-10-13T00:12:15;96087.59;;;17.27
61595;BMP280;47397;48.194;11.632;2023-10-13T00:13:15;96091.28;;;17.21
61595;BMP280;47397;48.194;11.632;2023-10-13T00:14:17;96086.28;;;17.18
61595;BMP280;47397;48.194;11.632;2023-10-13T00:15:18;96084.84;;;17.12
61595;BMP280;47397;48.194;11.632;2023-10-13T00:16:19;96089.25;;;17.09
61595;BMP280;47397;48.194;11.632;2023-10-13T00:17:19;96093.94;;;17.01
61595;BMP280;47397;48.194;11.632;2023-10-13T00:18:20;96092.25;;;17.00
61595;BMP280;47397;48.194;11.632;2023-10-13T00:19:20;96091.66;;;16.95
61595;BMP280;47397;48.194;11.632;2023-10-13T00:20:21;96083.94;;;16.95
61595;BMP280;47397;48.194;11.632;2023-10-13T00:21:24;96086.19;;;16.83
61595;BMP280;47397;48.194;11.632;2023-10-13T00:22:25;96081.19;;;16.80
61595;BMP280;47397;48.194;11.632;2023-10-13T00:23:25;96087.69;;;16.87
61595;BMP280;47397;48.194;11.632;2023-10-13T00:24:25;96085.81;;;16.91
61595;BMP280;47397;48.194;11.632;2023-10-13T00:25:26;96084.22;;;16.88
61595;BMP280;47397;48.194;11.632;2023-10-13T00:26:28;96085.69;;;16.94
61595;BMP280;47397;48.194;11.632;2023-10-13T00:27:28;96083.53;;;16.85
61595;BMP280;47397;48.194;11.632;2023-10-13T00:28:29;96085.19;;;16.86
61595;BMP280;47397;48.194;11.632;2023-10-13T00:29:30;96085.06;;;16.89
61595;BMP280;47397;48.194;11.632;2023-10-13T00:30:31;96076.66;;;16.85
61595;BMP280;47397;48.194;11.632;2023-10-13T00:31:31;96075.44;;;16.75
61595;BMP280;47397;48.194;11.632;2023-10-13T00:32:32;96082.56;;;16.69
61595;BMP280;47397;48.194;11.632;2023-10-13T00:33:32;96076.91;;;16.61
61595;BMP280;47397;48.194;11.632;2023-10-13T00:34:32;96079.59;;;16.39
61595;BMP280;47397;48.194;11.632;2023-10-13T00:35:33;96084.47;;;16.45
61595;BMP280;47397;48.194;11.632;2023-10-13T00:36:33;96080.38;;;16.60
61595;BMP280;47397;48.194;11.632;2023-10-13T00:37:33;96078.69;;;16.58
61595;BMP280;47397;48.194;11.632;2023-10-13T00:38:34;96076.91;;;16.61
61595;BMP280;47397;48.194;11.632;2023-10-13T00:39:34;96080.84;;;16.49
61595;BMP280;47397;48.194;11.632;2023-10-13T00:40:35;96082.66;;;16.47
61595;BMP280;47397;48.194;11.632;2023-10-13T00:41:35;96082.16;;;16.57
61595;BMP280;47397;48.194;11.632;2023-10-13T00:42:35;96081.91;;;16.64
61595;BMP280;47397;48.194;11.632;2023-10-13T00:43:44;96086.47;;;16.57
61595;BMP280;47397;48.194;11.632;2023-10-13T00:44:46;96083.34;;;16.50
61595;BMP280;47397;48.194;11.632;2023-10-13T00:45:47;96076.06;;;16.41
61595;BMP280;47397;48.194;11.632;2023-10-13T00:46:48;96088.69;;;16.46
61595;BMP280;47397;48.194;11.632;2023-10-13T00:47:49;96087.56;;;16.51
61595;BMP280;47397;48.194;11.632;2023-10-13T00:48:49;96086.13;;;16.46
61595;BMP280;47397;48.194;11.632;2023-10-13T00:49:50;96082.16;;;16.39
61595;BMP280;47397;48.194;11.632;2023-10-13T00:50:51;96078.75;;;16.38
61595;BMP280;47397;48.194;11.632;2023-10-13T00:51:51;96082.22;;;16.37
61595;BMP280;47397;48.194;11.632;2023-10-13T00:52:52;96084.78;;;16.37
61595;BMP280;47397;48.194;11.632;2023-10-13T00:53:52;96077.78;;;16.41
61595;BMP280;47397;48.194;11.632;2023-10-13T00:54:53;96079.28;;;16.26
61595;BMP280;47397;48.194;11.632;2023-10-13T00:55:53;96083.00;;;16.39
61595;BMP280;47397;48.194;11.632;2023-10-13T00:56:55;96084.06;;;16.34
61595;BMP280;47397;48.194;11.632;2023-10-13T00:57:55;96085.72;;;16.35
61595;BMP280;47397;48.194;11.632;2023-10-13T00:58:57;96079.78;;;16.34
61595;BMP280;47397;48.194;11.632;2023-10-13T01:00:00;96083.38;;;16.30
61595;BMP280;47397;48.194;11.632;2023-10-13T01:01:01;96080.19;;;16.25
61595;BMP280;47397;48.194;11.632;2023-10-13T01:02:02;96080.84;;;16.10
61595;BMP280;47397;48.194;11.632;2023-10-13T01:03:02;96078.84;;;16.16
61595;BMP280;47397;48.194;11.632;2023-10-13T01:04:04;96083.41;;;16.10
61595;BMP280;47397;48.194;11.632;2023-10-13T01:05:05;96077.50;;;16.08
61595;BMP280;47397;48.194;11.632;2023-10-13T01:06:06;96088.53;;;16.10
61595;BMP280;47397;48.194;11.632;2023-10-13T01:07:07;96088.34;;;16.14
61595;BMP280;47397;48.194;11.632;2023-10-13T01:08:07;96083.47;;;16.08
61595;BMP280;47397;48.194;11.632;2023-10-13T01:09:09;96080.97;;;16.07
61595;BMP280;47397;48.194;11.632;2023-10-13T01:10:10;96089.34;;;15.90
61595;BMP280;47397;48.194;11.632;2023-10-13T01:11:10;96087.06;;;16.04
61595;BMP280;47397;48.194;11.632;2023-10-13T01:12:11;96085.25;;;15.86
61595;BMP280;47397;48.194;11.632;2023-10-13T01:13:11;96092.75;;;15.90
61595;BMP280;47397;48.194;11.632;2023-10-13T01:14:12;96089.88;;;15.98
61595;BMP280;47397;48.194;11.632;2023-10-13T01:15:14;96086.44;;;15.99
61595;BMP280;47397;48.194;11.632;2023-10-13T01:16:14;96082.78;;;16.05
61595;BMP280;47397;48.194;11.632;2023-10-13T01:17:15;96081.94;;;15.84
61595;BMP280;47397;48.194;11.632;2023-10-13T01:18:15;96086.59;;;15.74
61595;BMP280;47397;48.194;11.632;2023-10-13T01:19:16;96088.28;;;15.75
61595;BMP280;47397;48.194;11.632;2023-10-13T01:20:17;96082.31;;;15.75
61595;BMP280;47397;48.194;11.632;2023-10-13T01:21:18;96080.06;;;15.87
61595;BMP280;47397;48.194;11.632;2023-10-13T01:22:18;96077.75;;;15.81
61595;BMP280;47397;48.194;11.632;2023-10-13T01:23:41;96077.56;;;15.66
61595;BMP280;47397;48.194;11.632;2023-10-13T01:24:41;96074.44;;;15.79
61595;BMP280;47397;48.194;11.632;2023-10-13T01:25:41;96076.41;;;15.73
61595;BMP280;47397;48.194;11.632;2023-10-13T01:26:42;96075.84;;;15.66
61595;BMP280;47397;48.194;11.632;2023-10-13T01:27:42;96079.13;;;15.70
61595;BMP280;47397;48.194;11.632;2023-10-13T01:28:43;96081.94;;;15.63
61595;BMP280;47397;48.194;11.632;2023-10-13T01:29:43;96075.91;;;15.65
61595;BMP280;47397;48.194;11.632;2023-10-13T01:30:44;96075.19;;;15.61
61595;BMP280;47397;48.194;11.632;2023-10-13T01:31:46;96079.25;;;15.67
61595;BMP280;47397;48.194;11.632;2023-10-13T01:32:46;96076.75;;;15.65
61595;BMP280;47397;48.194;11.632;2023-10-13T01:33:47;96075.53;;;15.74
61595;BMP280;47397;48.194;11.632;2023-10-13T01:34:47;96075.66;;;15.71
61595;BMP280;47397;48.194;11.632;2023-10-13T01:35:47;96075.47;;;15.75
61595;BMP280;47397;48.194;11.632;2023-10-13T01:36:48;96067.72;;;15.77
61595;BMP280;47397;48.194;11.632;2023-10-13T01:37:49;96069.63;;;15.72
61595;BMP280;47397;48.194;11.632;2023-10-13T01:38:50;96075.72;;;15.69
61595;BMP280;47397;48.194;11.632;2023-10-13T01:39:51;96071.69;;;15.63
61595;BMP280;47397;48.194;11.632;2023-10-13T01:42:29;96071.78;;;15.60
61595;BMP280;47397;48.194;11.632;2023-10-13T01:43:29;96072.06;;;15.53
61595;BMP280;47397;48.194;11.632;2023-10-13T01:44:30;96076.16;;;15.57
61595;BMP280;47397;48.194;11.632;2023-10-13T01:45:30;96073.47;;;15.40
61595;BMP280;47397;48.194;11.632;2023-10-13T01:46:30;96074.09;;;15.45
61595;BMP280;47397;48.194;11.632;2023-10-13T01:47:31;96077.09;;;15.34
61595;BMP280;47397;48.194;11.632;2023-10-13T01:48:31;96080.06;;;15.45
61595;BMP280;47397;48.194;11.632;2023-10-13T01:49:32;96076.91;;;15.39
61595;BMP280;47397;48.194;11.632;2023-10-13T01:50:36;96081.59;;;15.49
61595;BMP280;47397;48.194;11.632;2023-10-13T01:51:36;96081.66;;;15.48
61595;BMP280;47397;48.194;11.632;2023-10-13T01:52:36;96082.94;;;15.38
61595;BMP280;47397;48.194;11.632;2023-10-13T01:53:37;96084.41;;;15.43
61595;BMP280;47397;48.194;11.632;2023-10-13T01:54:39;96079.16;;;15.46
61595;BMP280;47397;48.194;11.632;2023-10-13T01:55:39;96078.91;;;15.52
61595;BMP280;47397;48.194;11.632;2023-10-13T01:56:39;96081.06;;;15.41
61595;BMP280;47397;48.194;11.632;2023-10-13T01:57:40;96082.34;;;15.31
61595;BMP280;47397;48.194;11.632;2023-10-13T01:58:40;96092.03;;;15.23
61595;BMP280;47397;48.194;11.632;2023-10-13T01:59:41;96085.09;;;15.26
61595;BMP280;47397;48.194;11.632;2023-10-13T02:00:41;96091.09;;;15.25
61595;BMP280;47397;48.194;11.632;2023-10-13T02:01:42;96090.28;;;15.25
61595;BMP280;47397;48.194;11.632;2023-10-13T02:02:42;96084.00;;;15.32
61595;BMP280;47397;48.194;11.632;2023-10-13T02:03:43;96089.47;;;15.23
61595;BMP280;47397;48.194;11.632;2023-10-13T02:04:43;96088.09;;;15.14
61595;BMP280;47397;48.194;11.632;2023-10-13T02:05:44;96086.63;;;15.09
61595;BMP280;47397;48.194;11.632;2023-10-13T02:06:44;96088.88;;;15.16
61595;BMP280;47397;48.194;11.632;2023-10-13T02:07:44;96085.25;;;15.22
61595;BMP280;47397;48.194;11.632;2023-10-13T02:08:45;96078.88;;;15.10
61595;BMP280;47397;48.194;11.632;2023-10-13T02:09:46;96083.81;;;15.15
61595;BMP280;47397;48.194;11.632;2023-10-13T02:10:47;96080.72;;;15.07
61595;BMP280;47397;48.194;11.632;2023-10-13T02:11:47;96082.09;;;15.15
61595;BMP280;47397;48.194;11.632;2023-10-13T02:12:47;96081.09;;;14.97
61595;BMP280;47397;48.194;11.632;2023-10-13T02:13:48;96082.69;;;15.00
61595;BMP280;47397;48.194;11.632;2023-10-13T02:14:48;96080.25;;;14.97
61595;BMP280;47397;48.194;11.632;2023-10-13T02:15:49;96084.59;;;14.95
61595;BMP280;47397;48.194;11.632;2023-10-13T02:16:53;96079.41;;;14.96
61595;BMP280;47397;48.194;11.632;2023-10-13T02:17:53;96085.31;;;14.98
61595;BMP280;47397;48.194;11.632;2023-10-13T02:18:54;96086.97;;;14.99
61595;BMP280;47397;48.194;11.632;2023-10-13T02:19:54;96087.81;;;15.00
61595;BMP280;47397;48.194;11.632;2023-10-13T02:20:55;96084.53;;;14.96
61595;BMP280;47397;48.194;11.632;2023-10-13T02:21:55;96082.16;;;14.92
61595;BMP280;47397;48.194;11.632;2023-10-13T02:22:56;96087.66;;;14.81
61595;BMP280;47397;48.194;11.632;2023-10-13T02:23:56;96076.66;;;14.79
61595;BMP280;47397;48.194;11.632;2023-10-13T02:24:58;96083.00;;;14.69
61595;BMP280;47397;48.194;11.632;2023-10-13T02:25:59;96085.31;;;14.75
61595;BMP280;47397;48.194;11.632;2023-10-13T02:27:00;96081.16;;;14.73
61595;BMP280;47397;48.194;11.632;2023-10-13T02:28:00;96083.66;;;14.74
61595;BMP280;47397;48.194;11.632;2023-10-13T02:29:01;96081.53;;;14.85
61595;BMP280;47397;48.194;11.632;2023-10-13T02:30:02;96079.91;;;14.83
61595;BMP280;47397;48.194;11.632;2023-10-13T02:31:03;96085.50;;;14.70
61595;BMP280;47397;48.194;11.632;2023-10-13T02:32:04;96078.78;;;14.68
61595;BMP280;47397;48.194;11.632;2023-10-13T02:33:04;96073.44;;;14.74
61595;BMP280;47397;48.194;11.632;2023-10-13T02:34:05;96081.22;;;14.71
61595;BMP280;47397;48.194;11.632;2023-10-13T02:35:06;96070.22;;;14.69
61595;BMP280;47397;48.194;11.632;2023-10-13T02:36:06;96079.72;;;14.65
61595;BMP280;47397;48.194;11.632;2023-10-13T02:37:07;96076.44;;;14.62
61595;BMP280;47397;48.194;11.632;2023-10-13T02:38:07;96077.81;;;14.47
61595;BMP280;47397;48.194;11.632;2023-10-13T02:39:08;96077.75;;;14.49
61595;BMP280;47397;48.194;11.632;2023-10-13T02:40:11;96075.19;;;14.50
61595;BMP280;47397;48.194;11.632;2023-10-13T02:41:12;96079.19;;;14.57
61595;BMP280;47397;48.194;11.632;2023-10-13T02:42:12;96079.41;;;14.51
61595;BMP280;47397;48.194;11.632;2023-10-13T02:43:13;96075.78;;;14.57
61595;BMP280;47397;48.194;11.632;2023-10-13T02:44:13;96067.34;;;14.55
61595;BMP280;47397;48.194;11.632;2023-10-13T02:45:14;96074.00;;;14.59
61595;BMP280;47397;48.194;11.632;2023-10-13T02:46:14;96073.47;;;14.49
61595;BMP280;47397;48.194;11.632;2023-10-13T02:47:15;96072.97;;;14.39
61595;BMP280;47397;48.194;11.632;2023-10-13T02:48:15;96073.59;;;14.46
61595;BMP280;47397;48.194;11.632;2023-10-13T02:49:15;96078.66;;;14.48
61595;BMP280;47397;48.194;11.632;2023-10-13T02:50:16;96076.22;;;14.45
61595;BMP280;47397;48.194;11.632;2023-10-13T02:51:16;96075.78;;;14.32
61595;BMP280;47397;48.194;11.632;2023-10-13T02:52:16;96070.84;;;14.27
61595;BMP280;47397;48.194;11.632;2023-10-13T02:53:17;96073.41;;;14.27
61595;BMP280;47397;48.194;11.632;2023-10-13T02:54:17;96070.63;;;14.33
61595;BMP280;47397;48.194;11.632;2023-10-13T02:55:19;96080.75;;;14.36
61595;BMP280;47397;48.194;11.632;2023-10-13T02:56:19;96079.03;;;14.12
61595;BMP280;47397;48.194;11.632;2023-10-13T02:57:20;96072.56;;;14.27
61595;BMP280;47397;48.194;11.632;2023-10-13T02:58:20;96075.19;;;14.25
61595;BMP280;47397;48.194;11.632;2023-10-13T03:01:03;96066.78;;;13.97
61595;BMP280;47397;48.194;11.632;2023-10-13T03:02:03;96072.28;;;13.86
61595;BMP280;47397;48.194;11.632;2023-10-13T03:03:04;96063.41;;;13.96
61595;BMP280;47397;48.194;11.632;2023-10-13T03:04:05;96064.34;;;13.94
61595;BMP280;47397;48.194;11.632;2023-10-13T03:05:06;96071.81;;;14.00
61595;BMP280;47397;48.194;11.632;2023-10-13T03:06:06;96069.47;;;13.94
61595;BMP280;47397;48.194;11.632;2023-10-13T03:07:07;96074.22;;;13.80
61595;BMP280;47397;48.194;11.632;2023-10-13T03:08:07;96069.50;;;13.92
61595;BMP280;47397;48.194;11.632;2023-10-13T03:09:08;96072.97;;;13.91
61595;BMP280;47397;48.194;11.632;2023-10-13T03:10:09;96067.56;;;13.99
61595;BMP280;47397;48.194;11.632;2023-10-13T03:11:11;96067.84;;;13.91
61595;BMP280;47397;48.194;11.632;2023-10-13T03:12:12;96066.91;;;13.94
61595;BMP280;47397;48.194;11.632;2023-10-13T03:13:12;96066.84;;;13.95
61595;BMP280;47397;48.194;11.632;2023-10-13T03:14:12;96070.44;;;13.90
61595;BMP280;47397;48.194;11.632;2023-10-13T03:15:13;96071.56;;;13.83
61595;BMP280;47397;48.194;11.632;2023-10-13T03:16:14;96058.00;;;13.81
61595;BMP280;47397;48.194;11.632;2023-10-13T03:17:15;96073.00;;;13.90
61595;BMP280;47397;48.194;11.632;2023-10-13T03:18:15;96064.63;;;13.86
61595;BMP280;47397;48.194;11.632;2023-10-13T03:19:15;96065.81;;;13.76
61595;BMP280;47397;48.194;11.632;2023-10-13T03:20:17;96062.16;;;13.83
61595;BMP280;47397;48.194;11.632;2023-10-13T03:21:17;96060.38;;;13.85
61595;BMP280;47397;48.194;11.632;2023-10-13T03:22:18;96065.16;;;13.69
61595;BMP280;47397;48.194;11.632;2023-10-13T03:23:18;96066.66;;;13.76
61595;BMP280;47397;48.194;11.632;2023-10-13T03:24:19;96071.88;;;13.72
61595;BMP280;47397;48.194;11.632;2023-10-13T03:25:19;96068.72;;;13.65
61595;BMP280;47397;48.194;11.632;2023-10-13T03:26:21;96066.94;;;13.67
61595;BMP280;47397;48.194;11.632;2023-10-13T03:27:21;96068.06;;;13.59
61595;BMP280;47397;48.194;11.632;2023-10-13T03:28:22;96068.91;;;13.59
61595;BMP280;47397;48.194;11.632;2023-10-13T03:29:22;96069.84;;;13.57
61595;BMP280;47397;48.194;11.632;2023-10-13T03:30:22;96070.16;;;13.48
61595;BMP280;47397;48.194;11.632;2023-10-13T03:31:23;96065.78;;;13.51
61595;BMP280;47397;48.194;11.632;2023-10-13T03:32:24;96066.41;;;13.58
61595;BMP280;47397;48.194;11.632;2023-10-13T03:33:24;96071.94;;;13.45
61595;BMP280;47397;48.194;11.632;2023-10-13T03:34:24;96066.78;;;13.47
61595;BMP280;47397;48.194;11.632;2023-10-13T03:35:25;96072.59;;;13.51
61595;BMP280;47397;48.194;11.632;2023-10-13T03:36:26;96067.44;;;13.52
61595;BMP280;47397;48.194;11.632;2023-10-13T03:37:26;96068.69;;;13.40
61595;BMP280;47397;48.194;11.632;2023-10-13T03:38:27;96061.91;;;13.39
61595;BMP280;47397;48.194;11.632;2023-10-13T03:39:27;96065.09;;;13.46
61595;BMP280;47397;48.194;11.632;2023-10-13T03:40:27;96065.38;;;13.37
61595;BMP280;47397;48.194;11.632;2023-10-13T03:41:29;96065.56;;;13.31
61595;BMP280;47397;48.194;11.632;2023-10-13T03:42:29;96064.88;;;13.26
61595;BMP280;47397;48.194;11.632;2023-10-13T03:43:31;96067.13;;;13.35
61595;BMP280;47397;48.194;11.632;2023-10-13T03:44:31;96067.19;;;13.33
61595;BMP280;47397;48.194;11.632;2023-10-13T03:45:33;96062.59;;;13.44
61595;BMP280;47397;48.194;11.632;2023-10-13T03:46:34;96069.69;;;13.35
61595;BMP280;47397;48.194;11.632;2023-10-13T03:47:35;96066.13;;;13.40
61595;BMP280;47397;48.194;11.632;2023-10-13T03:48:35;96061.19;;;13.34
61595;BMP280;47397;48.194;11.632;2023-10-13T03:49:35;96058.75;;;13.31
61595;BMP280;47397;48.194;11.632;2023-10-13T03:50:36;96058.06;;;13.26
61595;BMP280;47397;48.194;11.632;2023-10-13T03:51:37;96055.22;;;13.35
61595;BMP280;47397;48.194;11.632;2023-10-13T03:52:37;96054.69;;;13.26
61595;BMP280;47397;48.194;11.632;2023-10-13T03:53:39;96057.28;;;13.24
61595;BMP280;47397;48.194;11.632;2023-10-13T03:54:56;96048.75;;;13.25
61595;BMP280;47397;48.194;11.632;2023-10-13T03:55:56;96055.72;;;13.20
61595;BMP280;47397;48.194;11.632;2023-10-13T03:56:58;96059.44;;;13.36
61595;BMP280;47397;48.194;11.632;2023-10-13T03:57:59;96051.25;;;13.27
61595;BMP280;47397;48.194;11.632;2023-10-13T03:58:59;96063.94;;;13.28
61595;BMP280;47397;48.194;11.632;2023-10-13T04:00:00;96059.22;;;13.16
61595;BMP280;47397;48.194;11.632;2023-10-13T04:01:00;96063.38;;;13.20
61595;BMP280;47397;48.194;11.632;2023-10-13T04:02:01;96059.97;;;13.20
61595;BMP280;47397;48.194;11.632;2023-10-13T04:03:01;96059.19;;;13.18
61595;BMP280;47397;48.194;11.632;2023-10-13T04:04:02;96057.84;;;13.06
61595;BMP280;47397;48.194;11.632;2023-10-13T04:05:02;96062.09;;;13.05
61595;BMP280;47397;48.194;11.632;2023-10-13T04:06:04;96066.41;;;13.03
61595;BMP280;47397;48.194;11.632;2023-10-13T04:07:05;96066.47;;;13.02
61595;BMP280;47397;48.194;11.632;2023-10-13T04:08:06;96063.03;;;13.03
61595;BMP280;47397;48.194;11.632;2023-10-13T04:09:07;96056.81;;;13.11
61595;BMP280;47397;48.194;11.632;2023-10-13T04:10:07;96063.88;;;13.03
61595;BMP280;47397;48.194;11.632;2023-10-13T04:11:08;96059.25;;;12.87
61595;BMP280;47397;48.194;11.632;2023-10-13T04:12:09;96061.38;;;13.00
61595;BMP280;47397;48.194;11.632;2023-10-13T04:13:10;96054.59;;;13.01
61595;BMP280;47397;48.194;11.632;2023-10-13T04:14:10;96058.81;;;13.00
61595;BMP280;47397;48.194;11.632;2023-10-13T04:15:11;96048.88;;;12.93
61595;BMP280;47397;48.194;11.632;2023-10-13T04:16:11;96058.38;;;12.88
61595;BMP280;47397;48.194;11.632;2023-10-13T04:17:11;96057.44;;;12.90
61595;BMP280;47397;48.194;11.632;2023-10-13T04:18:12;96052.22;;;12.95
61595;BMP280;47397;48.194;11.632;2023-10-13T04:19:12;96056.28;;;13.00
61595;BMP280;47397;48.194;11.632;2023-10-13T04:20:13;96050.59;;;12.92
61595;BMP280;47397;48.194;11.632;2023-10-13T04:21:13;96049.84;;;12.89
61595;BMP280;47397;48.194;11.632;2023-10-13T04:22:14;96051.06;;;12.77
61595;BMP280;47397;48.194;11.632;2023-10-13T04:23:14;96052.34;;;12.90
61595;BMP280;47397;48.194;11.632;2023-10-13T04:24:14;96051.31;;;12.96
61595;BMP280;47397;48.194;11.632;2023-10-13T04:25:16;96049.34;;;12.77
61595;BMP280;47397;48.194;11.632;2023-10-13T04:26:17;96048.06;;;12.63
61595;BMP280;47397;48.194;11.632;2023-10-13T04:27:18;96051.88;;;12.77
61595;BMP280;47397;48.194;11.632;2023-10-13T04:28:19;96050.19;;;12.78
61595;BMP280;47397;48.194;11.632;2023-10-13T04:29:19;96046.84;;;12.76
61595;BMP280;47397;48.194;11.632;2023-10-13T04:30:19;96047.69;;;12.76
61595;BMP280;47397;48.194;11.632;2023-10-13T04:31:20;96050.69;;;12.89
61595;BMP280;47397;48.194;11.632;2023-10-13T04:32:20;96048.69;;;12.71
61595;BMP280;47397;48.194;11.632;2023-10-13T04:33:21;96043.16;;;12.57
61595;BMP280;47397;48.194;11.632;2023-10-13T04:34:21;96043.06;;;12.60
61595;BMP280;47397;48.194;11.632;2023-10-13T04:35:22;96032.25;;;12.51
61595;BMP280;47397;48.194;11.632;2023-10-13T04:36:22;96044.03;;;12.56
61595;BMP280;47397;48.194;11.632;2023-10-13T04:37:23;96038.75;;;12.62
61595;BMP280;47397;48.194;11.632;2023-10-13T04:38:23;96035.78;;;12.47
61595;BMP280;47397;48.194;11.632;2023-10-13T04:39:23;96037.41;;;12.50
61595;BMP280;47397;48.194;11.632;2023-10-13T04:40:24;96036.41;;;12.54
61595;BMP280;47397;48.194;11.632;2023-10-13T04:41:25;96029.88;;;12.45
61595;BMP280;47397;48.194;11.632;2023-10-13T04:42:27;96038.13;;;12.53
61595;BMP280;47397;48.194;11.632;2023-10-13T04:43:28;96034.88;;;12.48
61595;BMP280;47397;48.194;11.632;2023-10-13T04:44:28;96034.06;;;12.48
61595;BMP280;47397;48.194;11.632;2023-10-13T04:45:28;96034.84;;;12.50
61595;BMP280;47397;48.194;11.632;2023-10-13T04:46:29;96034.97;;;12.45
61595;BMP280;47397;48.194;11.632;2023-10-13T04:47:29;96032.38;;;12.47
61595;BMP280;47397;48.194;11.632;2023-10-13T04:48:30;96034.28;;;12.40
61595;BMP280;47397;48.194;11.632;2023-10-13T04:49:31;96031.81;;;12.37
61595;BMP280;47397;48.194;11.632;2023-10-13T04:50:32;96033.41;;;12.41
61595;BMP280;47397;48.194;11.632;2023-10-13T04:51:32;96031.72;;;12.40
61595;BMP280;47397;48.194;11.632;2023-10-13T04:52:32;96033.44;;;12.40
61595;BMP280;47397;48.194;11.632;2023-10-13T04:53:33;96033.59;;;12.35
61595;BMP280;47397;48.194;11.632;2023-10-13T04:54:34;96029.28;;;12.37
61595;BMP280;47397;48.194;11.632;2023-10-13T04:55:35;96033.34;;;12.43
61595;BMP280;47397;48.194;11.632;2023-10-13T04:56:35;96036.03;;;12.38
61595;BMP280;47397;48.194;11.632;2023-10-13T04:57:37;96035.25;;;12.36
61595;BMP280;47397;48.194;11.632;2023-10-13T04:58:38;96028.66;;;12.29
61595;BMP280;47397;48.194;11.632;2023-10-13T04:59:38;96033.75;;;12.29
61595;BMP280;47397;48.194;11.632;2023-10-13T05:00:38;96030.47;;;12.24
61595;BMP280;47397;48.194;11.632;2023-10-13T05:01:39;96033.75;;;12.29
61595;BMP280;47397;48.194;11.632;2023-10-13T05:02:40;96032.09;;;12.28
61595;BMP280;47397;48.194;11.632;2023-10-13T05:03:41;96021.84;;;12.30
61595;BMP280;47397;48.194;11.632;2023-10-13T05:04:41;96022.56;;;12.35
61595;BMP280;47397;48.194;11.632;2023-10-13T05:05:43;96030.34;;;12.30
61595;BMP280;47397;48.194;11.632;2023-10-13T05:06:43;96029.53;;;12.28
61595;BMP280;47397;48.194;11.632;2023-10-13T05:07:44;96023.38;;;12.35
61595;BMP280;47397;48.194;11.632;2023-10-13T05:08:44;96018.47;;;12.29
61595;BMP280;47397;48.194;11.632;2023-10-13T05:09:44;96021.72;;;12.34
61595;BMP280;47397;48.194;11.632;2023-10-13T05:10:45;96021.75;;;12.33
61595;BMP280;47397;48.194;11.632;2023-10-13T05:11:45;96023.06;;;12.16
61595;BMP280;47397;48.194;11.632;2023-10-13T05:12:47;96029.59;;;12.27
61595;BMP280;47397;48.194;11.632;2023-10-13T05:13:47;96033.22;;;12.18
61595;BMP280;47397;48.194;11.632;2023-10-13T05:14:48;96030.66;;;12.18
61595;BMP280;47397;48.194;11.632;2023-10-13T05:15:50;96028.09;;;12.18
61595;BMP280;47397;48.194;11.632;2023-10-13T05:16:50;96032.31;;;12.19
61595;BMP280;47397;48.194;11.632;2023-10-13T05:17:51;96029.13;;;12.12
61595;BMP280;47397;48.194;11.632;2023-10-13T05:18:51;96028.28;;;12.12
61595;BMP280;47397;48.194;11.632;2023-10-13T05:19:55;96033.94;;;11.92
61595;BMP280;47397;48.194;11.632;2023-10-13T05:20:56;96030.16;;;12.05
61595;BMP280;47397;48.194;11.632;2023-10-13T05:21:56;96031.63;;;12.14
61595;BMP280;47397;48.194;11.632;2023-10-13T05:22:56;96034.34;;;12.08
61595;BMP280;47397;48.194;11.632;2023-10-13T05:23:57;96030.88;;;12.10
61595;BMP280;47397;48.194;11.632;2023-10-13T05:24:57;96038.47;;;12.12
61595;BMP280;47397;48.194;11.632;2023-10-13T05:26:01;96030.91;;;12.09
61595;BMP280;47397;48.194;11.632;2023-10-13T05:27:02;96031.25;;;11.97
61595;BMP280;47397;48.194;11.632;2023-10-13T05:28:04;96029.38;;;12.03
61595;BMP280;47397;48.194;11.632;2023-10-13T05:29:04;96033.59;;;12.04
61595;BMP280;47397;48.194;11.632;2023-10-13T05:30:06;96026.38;;;11.87
61595;BMP280;47397;48.194;11.632;2023-10-13T05:31:07;96034.84;;;11.89
61595;BMP280;47397;48.194;11.632;2023-10-13T05:32:07;96032.06;;;11.99
61595;BMP280;47397;48.194;11.632;2023-10-13T05:33:08;96033.69;;;12.01
61595;BMP280;47397;48.194;11.632;2023-10-13T05:34:08;96031.88;;;12.05
61595;BMP280;47397;48.194;11.632;2023-10-13T05:35:09;96034.59;;;11.99
61595;BMP280;47397;48.194;11.632;2023-10-13T05:36:10;96044.44;;;12.11
61595;BMP280;47397;48.194;11.632;2023-10-13T05:37:11;96031.25;;;11.97
61595;BMP280;47397;48.194;11.632;2023-10-13T05:38:11;96034.59;;;11.99
61595;BMP280;47397;48.194;11.632;2023-10-13T05:39:12;96042.28;;;11.97
61595;BMP280;47397;48.194;11.632;2023-10-13T05:40:12;96036.53;;;11.89
61595;BMP280;47397;48.194;11.632;2023-10-13T05:41:12;96038.28;;;11.87
61595;BMP280;47397;48.194;11.632;2023-10-13T05:42:13;96038.94;;;11.95
61595;BMP280;47397;48.194;11.632;2023-10-13T05:43:14;96043.19;;;11.95
61595;BMP280;47397;48.194;11.632;2023-10-13T05:44:15;96034.47;;;12.03
61595;BMP280;47397;48.194;11.632;2023-10-13T05:45:15;96040.34;;;12.05
61595;BMP280;47397;48.194;11.632;2023-10-13T05:46:16;96035.47;;;11.98
61595;BMP280;47397;48.194;11.632;2023-10-13T05:47:16;96040.78;;;11.88
61595;BMP280;47397;48.194;11.632;2023-10-13T05:48:16;96036.47;;;11.92